createdAt,value
2019-05-02T00:01:51.425Z,267.17
2019-05-02T00:06:02.941Z,265.47
2019-05-02T00:10:19.885Z,267.67
2019-05-02T00:14:29.711Z,268.10
2019-05-02T00:18:40.137Z,276.87
2019-05-02T00:22:52.239Z,278.67
2019-05-02T00:27:03.205Z,273.62
2019-05-02T00:31:13.691Z,273.80
2019-05-02T00:35:24.003Z,277.90
2019-05-02T00:39:34.396Z,269.13
2019-05-02T00:43:44.904Z,272.97
2019-05-02T00:48:02.764Z,274.33
2019-05-02T00:52:13.102Z,284.40
2019-05-02T00:56:23.410Z,274.40
2019-05-02T01:00:35.350Z,276.90
2019-05-02T01:04:47.368Z,283.97
2019-05-02T01:08:57.777Z,275.67
2019-05-02T01:13:08.176Z,283.33
2019-05-02T01:17:18.482Z,272.47
2019-05-02T01:21:28.782Z,280.67
2019-05-02T01:25:39.907Z,282.37
2019-05-02T01:29:54.820Z,276.70
2019-05-02T01:34:22.637Z,273.53
2019-05-02T01:38:37.353Z,273.63
2019-05-02T01:42:48.999Z,272.73
2019-05-02T01:47:00.044Z,275.53
2019-05-02T01:51:12.100Z,279.30
2019-05-02T01:55:22.503Z,284.50
2019-05-02T01:59:33.914Z,284.43
2019-05-02T02:03:45.542Z,274.43
2019-05-02T02:07:58.291Z,276.70
2019-05-02T02:12:11.284Z,283.33
2019-05-02T02:16:21.302Z,277.80
2019-05-02T02:20:33.236Z,279.93
2019-05-02T02:24:45.199Z,283.87
2019-05-02T02:28:55.592Z,293.77
2019-05-02T02:33:07.782Z,286.97
2019-05-02T02:37:18.128Z,286.20
2019-05-02T02:41:28.443Z,281.50
2019-05-02T02:45:51.839Z,287.63
2019-05-02T02:50:02.559Z,290.90
2019-05-02T02:54:12.791Z,282.70
2019-05-02T02:58:23.106Z,295.93
2019-05-02T03:02:34.272Z,298.57
2019-05-02T03:06:47.234Z,301.90
2019-05-02T03:10:57.753Z,307.23
2019-05-02T03:15:09.954Z,296.03
2019-05-02T03:19:21.677Z,307.87
2019-05-02T03:23:32.474Z,302.67
2019-05-02T03:27:42.825Z,296.50
2019-05-02T03:32:11.813Z,315.37
2019-05-02T03:36:05.253Z,292.57
2019-05-02T03:40:15.737Z,297.27
2019-05-02T03:44:26.832Z,291.93
2019-05-02T03:48:37.169Z,310.50
2019-05-02T03:52:47.632Z,304.50
2019-05-02T03:56:58.094Z,299.87
2019-05-02T04:01:08.499Z,295.60
2019-05-02T04:05:18.782Z,287.47
2019-05-02T04:09:39.243Z,288.30
2019-05-02T04:13:46.479Z,283.70
2019-05-02T04:17:57.039Z,289.17
2019-05-02T04:22:11.810Z,299.07
2019-05-02T04:26:19.518Z,293.57
2019-05-02T04:30:29.716Z,297.53
2019-05-02T04:34:40.938Z,290.63
2019-05-02T04:38:52.681Z,287.70
2019-05-02T04:43:08.250Z,292.30
2019-05-02T04:47:20.774Z,296.20
2019-05-02T04:51:30.835Z,285.27
2019-05-02T04:55:39.145Z,287.53
2019-05-02T04:59:50.646Z,293.40
2019-05-02T05:04:02.999Z,275.20
2019-05-02T05:08:19.631Z,286.10
2019-05-02T05:12:25.495Z,277.85
2019-05-02T05:16:37.305Z,284.00
2019-05-02T05:20:53.068Z,280.70
2019-05-02T05:25:02.472Z,280.13
2019-05-02T05:29:13.920Z,279.60
2019-05-02T05:33:24.685Z,277.23
2019-05-02T05:37:34.995Z,282.63
2019-05-02T05:41:52.141Z,281.13
2019-05-02T05:46:09.272Z,282.40
2019-05-02T05:50:12.723Z,281.27
2019-05-02T05:54:24.493Z,281.23
2019-05-02T05:58:39.868Z,286.70
2019-05-02T06:02:55.543Z,282.87
2019-05-02T06:07:03.176Z,279.23
2019-05-02T06:11:14.875Z,285.03
2019-05-02T06:15:25.770Z,295.83
2019-05-02T06:19:36.210Z,276.40
2019-05-02T06:23:46.795Z,283.33
2019-05-02T06:28:00.129Z,277.03
2019-05-02T06:32:08.932Z,279.17
2019-05-02T06:36:19.422Z,281.20
2019-05-02T06:40:29.723Z,286.50
2019-05-02T06:44:40.046Z,284.03
2019-05-02T06:48:52.275Z,288.73
2019-05-02T06:53:04.294Z,288.33
2019-05-02T06:57:14.285Z,286.23
2019-05-02T07:01:24.671Z,288.53
2019-05-02T07:05:34.978Z,282.27
2019-05-02T07:09:45.277Z,283.00
2019-05-02T07:13:56.269Z,282.57
2019-05-02T07:18:12.285Z,284.47
2019-05-02T07:22:22.879Z,288.07
2019-05-02T07:26:33.973Z,290.00
2019-05-02T07:30:44.389Z,300.00
2019-05-02T07:34:54.843Z,284.23
2019-05-02T07:39:09.233Z,296.57
2019-05-02T07:43:22.178Z,284.03
2019-05-02T07:47:34.571Z,297.80
2019-05-02T07:51:45.106Z,285.90
2019-05-02T07:55:56.012Z,290.10
2019-05-02T08:00:10.921Z,280.03
2019-05-02T08:04:21.239Z,281.20
2019-05-02T08:08:31.931Z,285.03
2019-05-02T08:12:42.450Z,263.97
2019-05-02T08:17:04.897Z,277.93
2019-05-02T08:21:05.409Z,279.53
2019-05-02T08:25:16.451Z,274.80
2019-05-02T08:29:28.739Z,281.07
2019-05-02T08:33:40.237Z,276.87
2019-05-02T08:37:50.730Z,284.50
2019-05-02T08:42:01.032Z,287.47
2019-05-02T08:46:14.558Z,279.13
2019-05-02T08:50:27.121Z,282.90
2019-05-02T08:54:36.118Z,289.60
2019-05-02T08:58:49.836Z,288.50
2019-05-02T09:03:02.694Z,284.00
2019-05-02T09:07:13.882Z,284.63
2019-05-02T09:11:24.419Z,284.17
2019-05-02T09:15:35.280Z,289.40
2019-05-02T09:19:59.449Z,286.97
2019-05-02T09:23:58.807Z,296.30
2019-05-02T09:28:09.286Z,286.47
2019-05-02T09:32:24.861Z,287.90
2019-05-02T09:36:32.622Z,283.20
2019-05-02T09:40:47.208Z,287.80
2019-05-02T09:44:58.644Z,282.80
2019-05-02T09:49:15.768Z,287.23
2019-05-02T09:53:25.551Z,286.73
2019-05-02T09:57:34.442Z,282.53
2019-05-02T10:01:44.668Z,276.00
2019-05-02T10:05:55.004Z,286.23
2019-05-02T10:10:07.623Z,280.23
2019-05-02T10:14:17.989Z,272.90
2019-05-02T10:18:30.135Z,277.97
2019-05-02T10:22:41.874Z,284.70
2019-05-02T10:26:55.276Z,276.33
2019-05-02T10:31:05.278Z,284.93
2019-05-02T10:35:17.212Z,266.13
2019-05-02T10:39:28.467Z,268.50
2019-05-02T10:43:39.664Z,276.60
2019-05-02T10:47:49.981Z,267.73
2019-05-02T10:52:02.599Z,267.23
2019-05-02T10:56:13.671Z,279.20
2019-05-02T11:00:26.044Z,277.40
2019-05-02T11:04:38.068Z,273.32
2019-05-02T11:08:48.403Z,259.05
2019-05-02T11:13:03.550Z,270.73
2019-05-02T11:17:36.266Z,271.50
2019-05-02T11:21:55.401Z,269.03
2019-05-02T11:25:57.915Z,273.95
2019-05-02T11:30:12.169Z,264.70
2019-05-02T11:34:23.441Z,269.15
2019-05-02T11:38:34.143Z,275.38
2019-05-02T11:42:44.711Z,263.00
2019-05-02T11:46:55.037Z,259.98
2019-05-02T11:51:07.319Z,264.23
2019-05-02T11:55:19.127Z,282.37
2019-05-02T11:59:32.017Z,278.17
2019-05-02T12:03:46.780Z,271.30
2019-05-02T12:08:00.795Z,262.17
2019-05-02T12:12:09.014Z,261.75
2019-05-02T12:16:22.594Z,256.63
2019-05-02T12:20:33.953Z,262.63
2019-05-02T12:24:45.460Z,275.87
2019-05-02T12:28:55.761Z,274.27
2019-05-02T12:33:07.388Z,272.20
2019-05-02T12:37:18.574Z,261.82
2019-05-02T12:41:29.147Z,264.60
2019-05-02T12:45:42.197Z,267.77
2019-05-02T12:49:53.912Z,258.50
2019-05-02T12:54:05.512Z,271.73
2019-05-02T12:58:16.083Z,274.07
2019-05-02T13:02:34.371Z,272.97
2019-05-02T13:06:44.680Z,272.93
2019-05-02T13:11:02.174Z,272.00
2019-05-02T13:15:12.818Z,267.93
2019-05-02T13:19:36.517Z,266.90
2019-05-02T13:23:52.047Z,250.57
2019-05-02T13:28:02.604Z,264.10
2019-05-02T13:32:18.658Z,263.65
2019-05-02T13:36:46.619Z,270.10
2019-05-02T13:40:58.801Z,261.70
2019-05-02T13:45:17.873Z,266.43
2019-05-02T13:49:28.242Z,265.40
2019-05-02T13:53:42.507Z,269.53
2019-05-02T13:57:53.245Z,272.83
2019-05-02T14:02:06.233Z,285.27
2019-05-02T14:06:16.575Z,261.93
2019-05-02T14:10:33.668Z,262.53
2019-05-02T14:14:42.353Z,264.03
2019-05-02T14:18:53.104Z,264.47
2019-05-02T14:23:03.588Z,267.00
2019-05-02T14:27:17.121Z,255.90
2019-05-02T14:31:25.783Z,273.53
2019-05-02T14:35:39.475Z,254.60
2019-05-02T14:39:52.427Z,263.68
2019-05-02T14:44:03.509Z,262.63
2019-05-02T14:48:21.437Z,251.13
2019-05-02T14:52:28.729Z,245.13
2019-05-02T14:56:47.574Z,252.23
2019-05-02T15:00:56.982Z,254.27
2019-05-02T15:05:08.188Z,246.83
2019-05-02T15:09:24.826Z,262.90
2019-05-02T15:13:32.300Z,261.57
2019-05-02T15:17:43.379Z,252.60
2019-05-02T15:21:55.969Z,252.30
2019-05-02T15:26:05.624Z,255.33
2019-05-02T15:30:16.231Z,248.33
2019-05-02T15:34:46.252Z,259.93
2019-05-02T15:38:48.892Z,251.83
2019-05-02T15:43:02.738Z,257.00
2019-05-02T15:47:12.436Z,257.00
2019-05-02T15:51:23.144Z,260.67
2019-05-02T15:55:39.372Z,263.73
2019-05-02T15:59:46.418Z,255.93
2019-05-02T16:04:01.822Z,247.23
2019-05-02T16:08:12.659Z,249.23
2019-05-02T16:12:27.256Z,250.23
2019-05-02T16:16:36.827Z,240.73
2019-05-02T16:21:04.665Z,255.50
2019-05-02T16:25:07.349Z,245.70
2019-05-02T16:29:23.285Z,251.27
2019-05-02T16:33:31.793Z,241.77
2019-05-02T16:37:42.104Z,243.00
2019-05-02T16:41:53.679Z,248.80
2019-05-02T16:46:06.734Z,240.27
2019-05-02T16:50:18.663Z,246.27
2019-05-02T16:54:29.455Z,256.10
2019-05-02T16:58:43.372Z,256.83
2019-05-02T17:02:51.742Z,252.90
2019-05-02T17:07:05.783Z,259.37
2019-05-02T17:11:17.578Z,249.20
2019-05-02T17:15:35.736Z,251.07
2019-05-02T17:19:46.004Z,275.20
2019-05-02T17:23:56.308Z,249.13
2019-05-02T17:28:10.510Z,245.73
2019-05-02T17:32:19.902Z,245.30
2019-05-02T17:36:32.121Z,244.97
2019-05-02T17:40:42.307Z,240.93
2019-05-02T17:44:57.742Z,251.07
2019-05-02T17:49:04.563Z,254.37
2019-05-02T17:53:14.905Z,255.63
2019-05-02T17:57:28.563Z,246.33
2019-05-02T18:01:41.789Z,264.47
2019-05-02T18:05:53.844Z,250.63
2019-05-02T18:10:14.332Z,252.17
2019-05-02T18:14:21.290Z,251.87
2019-05-02T18:18:31.952Z,256.10
2019-05-02T18:22:45.419Z,249.87
2019-05-02T18:26:55.331Z,247.17
2019-05-02T18:31:06.001Z,249.87
2019-05-02T18:35:17.395Z,254.40
2019-05-02T18:39:27.607Z,267.43
2019-05-02T18:43:43.578Z,258.43
2019-05-02T18:47:55.426Z,247.67
2019-05-02T18:52:01.924Z,259.53
2019-05-02T18:56:12.549Z,254.23
2019-05-02T19:00:27.940Z,250.47
2019-05-02T19:04:39.389Z,245.33
2019-05-02T19:08:51.724Z,251.93
2019-05-02T19:13:02.179Z,242.77
2019-05-02T19:17:12.613Z,247.47
2019-05-02T19:21:26.346Z,254.03
2019-05-02T19:25:35.037Z,256.68
2019-05-02T19:29:48.145Z,255.93
2019-05-02T19:33:57.780Z,252.53
2019-05-02T19:38:08.264Z,253.03
2019-05-02T19:42:22.593Z,251.87
2019-05-02T19:46:34.718Z,251.50
2019-05-02T19:50:44.012Z,261.00
2019-05-02T19:54:54.388Z,245.17
2019-05-02T19:59:04.818Z,287.03
2019-05-02T20:03:21.602Z,266.53
2019-05-02T20:07:27.353Z,250.97
2019-05-02T20:11:37.959Z,247.67
2019-05-02T20:15:52.553Z,254.70
2019-05-02T20:20:21.651Z,261.07
2019-05-02T20:24:36.782Z,305.87
2019-05-02T20:28:47.098Z,268.77
2019-05-02T20:32:58.185Z,269.97
2019-05-02T20:37:08.493Z,269.10
2019-05-02T20:41:18.800Z,259.43
2019-05-02T20:45:29.179Z,272.90
2019-05-02T20:49:39.507Z,271.93
2019-05-02T20:53:49.807Z,270.90
2019-05-02T20:58:02.026Z,273.90
2019-05-02T21:02:12.361Z,273.77
2019-05-02T21:06:37.458Z,267.43
2019-05-02T21:10:38.521Z,275.97
2019-05-02T21:14:49.685Z,267.43
2019-05-02T21:19:01.887Z,266.53
2019-05-02T21:23:12.039Z,272.60
2019-05-02T21:27:22.909Z,255.20
2019-05-02T21:31:33.105Z,260.47
2019-05-02T21:35:43.405Z,264.07
2019-05-02T21:39:53.706Z,254.60
2019-05-02T21:44:04.025Z,255.17
2019-05-02T21:48:14.307Z,264.73
2019-05-02T21:52:31.525Z,259.97
2019-05-02T21:56:43.823Z,257.90
2019-05-02T22:01:13.036Z,263.43
2019-05-02T22:05:23.463Z,255.80
2019-05-02T22:09:33.679Z,255.63
2019-05-02T22:13:43.975Z,252.03
2019-05-02T22:17:54.275Z,248.90
2019-05-02T22:22:04.583Z,265.43
2019-05-02T22:26:14.980Z,258.67
2019-05-02T22:30:25.454Z,263.00
2019-05-02T22:34:35.657Z,259.30
2019-05-02T22:38:47.589Z,255.70
2019-05-02T22:42:57.881Z,253.30
2019-05-02T22:47:08.183Z,250.67
2019-05-02T22:51:18.588Z,274.70
2019-05-02T22:55:28.875Z,253.13
2019-05-02T22:59:39.181Z,248.57
2019-05-02T23:03:49.755Z,244.23
2019-05-02T23:08:02.167Z,241.87
2019-05-02T23:12:13.161Z,243.97
2019-05-02T23:16:23.662Z,251.23
2019-05-02T23:20:34.051Z,276.03
2019-05-02T23:24:54.704Z,247.23
2019-05-02T23:29:06.834Z,247.23
2019-05-02T23:33:17.030Z,245.40
2019-05-02T23:37:27.319Z,246.23
2019-05-02T23:41:38.232Z,243.47
2019-05-02T23:45:48.566Z,244.27
2019-05-02T23:49:58.850Z,244.93
2019-05-02T23:54:09.077Z,249.70
2019-05-02T23:58:19.483Z,254.03
